Time;durP1;ratioP1;P1;durP2;ratioP2;P2;SDS_P1;SDS_P2;PMS_P1;PMS_P2;Temp;Humidity;BMP_temperature;BMP_pressure;BME280_temperature;BME280_humidity;BME280_pressure;Samples;Min_cycle;Max_cycle;Signal;HPM_P1;HPM_P2
2022/02/24 00:01:55;;;;;;;8.90;5.50;;;1.50;99.90;;;;;;4993232;28;20423;-59
2022/02/24 00:04:21;;;;;;;8.57;5.73;;;1.50;99.90;;;;;;4987601;28;20498;-59
2022/02/24 00:06:46;;;;;;;9.00;5.00;;;1.50;99.90;;;;;;4985771;28;20259;-58
2022/02/24 00:09:12;;;;;;;9.30;5.67;;;1.40;99.90;;;;;;4988697;28;20176;-58
2022/02/24 00:11:38;;;;;;;12.73;5.60;;;1.40;99.90;;;;;;4982819;28;20195;-59
2022/02/24 00:14:03;;;;;;;10.97;6.20;;;1.40;99.90;;;;;;4986240;28;20202;-60
2022/02/24 00:16:29;;;;;;;6.20;4.37;;;1.30;99.90;;;;;;4988030;28;20226;-59
2022/02/24 00:18:55;;;;;;;7.67;5.83;;;1.40;99.90;;;;;;4988143;28;20169;-59
2022/02/24 00:21:21;;;;;;;7.80;5.23;;;1.30;99.90;;;;;;4989008;28;20211;-58
2022/02/24 00:23:48;;;;;;;12.57;5.53;;;1.30;99.90;;;;;;4986706;28;20180;-59
2022/02/24 00:26:14;;;;;;;7.20;4.80;;;1.30;99.90;;;;;;4987881;28;20462;-59
2022/02/24 00:28:40;;;;;;;9.17;5.43;;;1.30;99.90;;;;;;4990219;28;20970;-59
2022/02/24 00:31:08;;;;;;;8.47;5.40;;;1.30;99.90;;;;;;4988211;28;20471;-59
2022/02/24 00:33:34;;;;;;;9.63;5.20;;;1.30;99.90;;;;;;4990742;28;20416;-59
2022/02/24 00:36:00;;;;;;;5.97;5.07;;;1.30;99.90;;;;;;4988372;28;20562;-59
2022/02/24 00:38:25;;;;;;;8.63;4.93;;;1.30;99.90;;;;;;4988780;28;20517;-59
2022/02/24 00:40:51;;;;;;;6.83;4.83;;;1.30;99.90;;;;;;4986157;28;20197;-59
2022/02/24 00:43:17;;;;;;;7.10;5.37;;;1.20;99.90;;;;;;4986358;28;20778;-60
2022/02/24 00:45:42;;;;;;;7.77;5.17;;;1.20;99.90;;;;;;4988734;28;20611;-58
2022/02/24 00:48:08;;;;;;;8.20;5.10;;;1.20;99.90;;;;;;4990373;28;20250;-59
2022/02/24 00:50:34;;;;;;;9.50;5.33;;;1.20;99.90;;;;;;4989194;28;20207;-58
2022/02/24 00:53:00;;;;;;;7.30;5.30;;;1.20;99.90;;;;;;4990864;28;20957;-59
2022/02/24 00:55:26;;;;;;;7.37;5.20;;;1.20;99.90;;;;;;4986562;28;20454;-59
2022/02/24 00:57:52;;;;;;;6.80;4.40;;;1.10;99.90;;;;;;4991069;28;20179;-60
2022/02/24 01:00:19;;;;;;;8.70;5.47;;;1.10;99.90;;;;;;4985838;28;20538;-59
2022/02/24 01:02:44;;;;;;;8.93;5.47;;;1.10;99.90;;;;;;4989606;28;21201;-59
2022/02/24 01:05:10;;;;;;;10.27;6.07;;;1.10;99.90;;;;;;4985302;28;20435;-59
2022/02/24 01:07:36;;;;;;;14.23;6.07;;;1.10;99.90;;;;;;4990506;28;20687;-60
2022/02/24 01:10:02;;;;;;;8.70;5.70;;;1.10;99.90;;;;;;4989046;28;20282;-60
2022/02/24 01:12:28;;;;;;;10.00;4.97;;;1.00;99.90;;;;;;4989083;28;20695;-59
2022/02/24 01:14:54;;;;;;;11.53;6.30;;;1.00;99.90;;;;;;4986332;28;20418;-60
2022/02/24 01:17:19;;;;;;;12.27;6.53;;;1.00;99.90;;;;;;4989838;28;20180;-59
2022/02/24 01:19:45;;;;;;;9.70;6.13;;;0.90;99.90;;;;;;4989105;28;20306;-59
2022/02/24 01:22:10;;;;;;;10.73;6.20;;;0.90;99.90;;;;;;4988866;28;20184;-59
2022/02/24 01:24:36;;;;;;;14.20;7.60;;;0.90;99.90;;;;;;4988192;28;20183;-59
2022/02/24 01:27:03;;;;;;;10.73;6.60;;;0.90;99.90;;;;;;4989509;28;20195;-58
2022/02/24 01:29:29;;;;;;;10.13;6.20;;;0.80;99.90;;;;;;4984280;28;20470;-59
2022/02/24 01:31:55;;;;;;;9.93;6.07;;;0.80;99.90;;;;;;4987900;28;20431;-59
2022/02/24 01:34:20;;;;;;;7.77;5.67;;;0.80;99.90;;;;;;4986857;28;20164;-59
2022/02/24 01:36:47;;;;;;;9.00;6.47;;;0.80;99.90;;;;;;4988764;28;20186;-59
2022/02/24 01:39:12;;;;;;;17.60;5.93;;;0.80;99.90;;;;;;4980339;28;20184;-59
2022/02/24 01:41:38;;;;;;;9.83;6.00;;;0.80;99.90;;;;;;4989901;28;20413;-58
2022/02/24 01:44:12;;;;;;;9.17;5.90;;;0.70;99.90;;;;;;4987029;28;20266;-59
2022/02/24 01:46:38;;;;;;;10.63;6.03;;;0.70;99.90;;;;;;4988878;28;20710;-59
2022/02/24 01:49:05;;;;;;;11.17;6.47;;;0.60;99.90;;;;;;4985395;28;20431;-58
2022/02/24 01:51:33;;;;;;;22.03;6.30;;;0.60;99.90;;;;;;4988327;28;20168;-60
2022/02/24 01:53:59;;;;;;;14.27;5.80;;;0.60;99.90;;;;;;4988205;28;20415;-59
2022/02/24 01:56:25;;;;;;;9.13;5.63;;;0.60;99.90;;;;;;4987671;28;20423;-59
2022/02/24 01:58:51;;;;;;;10.63;6.23;;;0.60;99.90;;;;;;4988215;28;20434;-59
2022/02/24 02:01:17;;;;;;;10.37;6.50;;;0.60;99.90;;;;;;4987728;28;20481;-59
2022/02/24 02:03:44;;;;;;;8.30;5.43;;;0.60;99.90;;;;;;4988864;28;20555;-59
2022/02/24 02:06:10;;;;;;;17.30;5.27;;;0.60;99.90;;;;;;4985452;28;20537;-58
2022/02/24 02:08:36;;;;;;;8.33;5.30;;;0.60;99.90;;;;;;4986075;28;20444;-59
2022/02/24 02:11:02;;;;;;;6.90;4.50;;;0.60;99.90;;;;;;4983936;28;20828;-59
2022/02/24 02:13:33;;;;;;;10.70;5.47;;;0.60;99.90;;;;;;4985382;28;20434;-58
2022/02/24 02:15:59;;;;;;;20.43;5.67;;;0.60;99.90;;;;;;4985807;28;20434;-58
2022/02/24 02:18:25;;;;;;;21.93;5.63;;;0.60;99.90;;;;;;4989700;28;20903;-59
2022/02/24 02:20:51;;;;;;;12.83;5.60;;;0.50;99.90;;;;;;4987845;28;20211;-59
2022/02/24 02:23:17;;;;;;;22.40;5.90;;;0.50;99.90;;;;;;4987965;28;20221;-58
2022/02/24 02:25:43;;;;;;;15.83;4.90;;;0.50;99.90;;;;;;4986439;28;20449;-58
2022/02/24 02:28:16;;;;;;;9.77;5.13;;;0.50;99.90;;;;;;4986208;28;20475;-60
2022/02/24 02:30:43;;;;;;;10.13;5.37;;;0.50;99.90;;;;;;4985516;28;20501;-58
2022/02/24 02:33:10;;;;;;;22.40;5.90;;;0.50;99.90;;;;;;4988855;28;20430;-59
2022/02/24 02:35:36;;;;;;;6.53;4.73;;;0.40;99.90;;;;;;4985466;28;20426;-60
2022/02/24 02:38:03;;;;;;;7.67;4.87;;;0.40;99.90;;;;;;4987639;28;20526;-59
2022/02/24 02:40:29;;;;;;;19.53;5.40;;;0.40;99.90;;;;;;4987091;28;20441;-59
2022/02/24 02:42:54;;;;;;;8.10;5.00;;;0.40;99.90;;;;;;4986302;28;20434;-59
2022/02/24 02:45:20;;;;;;;7.23;4.70;;;0.30;99.90;;;;;;4984909;28;20182;-59
2022/02/24 02:47:47;;;;;;;8.07;5.20;;;0.30;99.90;;;;;;4988018;28;20195;-60
2022/02/24 02:50:13;;;;;;;8.07;4.93;;;0.30;99.90;;;;;;4989216;28;20465;-59
2022/02/24 02:52:39;;;;;;;13.53;4.77;;;0.30;99.90;;;;;;4990831;28;20414;-58
2022/02/24 02:55:08;;;;;;;18.50;5.60;;;0.30;99.90;;;;;;4989741;28;20429;-59
2022/02/24 02:57:34;;;;;;;50.90;6.93;;;0.30;99.90;;;;;;4986978;28;20178;-59
2022/02/24 03:00:01;;;;;;;14.60;5.23;;;0.30;99.90;;;;;;4989006;28;20474;-60
2022/02/24 03:02:26;;;;;;;28.80;6.07;;;0.30;99.90;;;;;;4992564;28;20418;-59
2022/02/24 03:04:53;;;;;;;112.47;8.30;;;0.30;99.90;;;;;;4990813;28;20433;-59
2022/02/24 03:07:19;;;;;;;133.33;10.30;;;0.20;99.90;;;;;;4991152;28;20223;-59
2022/02/24 03:09:45;;;;;;;110.60;9.70;;;0.20;99.90;;;;;;4982660;28;20462;-59
2022/02/24 03:12:12;;;;;;;45.47;7.50;;;0.20;99.90;;;;;;4987432;28;20947;-59
2022/02/24 03:14:38;;;;;;;42.47;8.77;;;0.20;99.90;;;;;;4987780;28;20445;-60
2022/02/24 03:17:05;;;;;;;37.80;7.23;;;0.20;99.90;;;;;;4984327;28;20441;-58
2022/02/24 03:19:30;;;;;;;38.50;7.60;;;0.20;99.90;;;;;;4984921;28;20460;-58
2022/02/24 03:21:56;;;;;;;75.60;7.33;;;0.20;99.90;;;;;;4987155;28;20431;-59
2022/02/24 03:24:22;;;;;;;96.80;8.67;;;0.20;99.90;;;;;;4985679;28;20203;-59
2022/02/24 03:26:48;;;;;;;66.33;8.53;;;0.20;99.90;;;;;;4987007;28;20179;-59
2022/02/24 03:29:14;;;;;;;91.90;11.00;;;0.20;99.90;;;;;;4986369;28;20468;-59
2022/02/24 03:31:41;;;;;;;85.30;9.67;;;0.20;99.90;;;;;;4988337;28;20423;-59
2022/02/24 03:34:07;;;;;;;114.33;15.20;;;0.20;99.90;;;;;;4987883;28;20556;-59
2022/02/24 03:36:33;;;;;;;91.47;16.30;;;0.20;99.90;;;;;;5001923;28;21665;-58
2022/02/24 03:38:59;;;;;;;99.40;16.20;;;0.10;99.90;;;;;;4985654;28;20171;-60
2022/02/24 03:41:24;;;;;;;104.67;17.30;;;0.00;99.90;;;;;;4984483;28;20466;-59
2022/02/24 03:43:53;;;;;;;178.10;18.40;;;0.10;99.90;;;;;;4987856;28;20175;-59
2022/02/24 03:46:21;;;;;;;91.30;15.27;;;0.00;99.90;;;;;;4985280;28;20788;-59
2022/02/24 03:48:48;;;;;;;141.50;14.97;;;0.00;99.90;;;;;;4983195;28;20488;-59
2022/02/24 03:51:15;;;;;;;145.50;15.80;;;0.00;99.90;;;;;;4985424;28;21001;-58
2022/02/24 03:53:40;;;;;;;94.80;13.10;;;0.00;99.90;;;;;;4986296;28;20466;-57
2022/02/24 03:56:07;;;;;;;60.57;14.70;;;0.00;99.90;;;;;;4984308;28;20566;-59
2022/02/24 03:58:33;;;;;;;90.97;20.20;;;0.00;99.90;;;;;;4985301;28;20520;-58
2022/02/24 04:00:58;;;;;;;91.67;19.50;;;0.00;99.90;;;;;;4982590;28;20200;-59
2022/02/24 04:03:25;;;;;;;78.27;19.40;;;-0.10;99.90;;;;;;4985889;28;20183;-59
2022/02/24 04:05:50;;;;;;;151.00;20.60;;;-0.10;99.90;;;;;;4985825;28;20266;-60
2022/02/24 04:08:17;;;;;;;136.63;20.50;;;0.00;99.90;;;;;;4989190;28;20531;-59
2022/02/24 04:10:42;;;;;;;97.90;18.40;;;-0.10;99.90;;;;;;4985053;28;20226;-60
2022/02/24 04:13:08;;;;;;;135.13;18.17;;;-0.10;99.90;;;;;;4986290;28;20434;-60
2022/02/24 04:15:36;;;;;;;57.10;13.77;;;-0.10;99.90;;;;;;4985794;28;20184;-60
2022/02/24 04:18:01;;;;;;;56.50;13.67;;;-0.10;99.90;;;;;;4985715;28;20269;-61
2022/02/24 04:20:27;;;;;;;41.87;9.00;;;-0.10;99.90;;;;;;4983911;28;20486;-60
2022/02/24 04:22:53;;;;;;;42.97;8.00;;;-0.10;99.90;;;;;;4983095;28;20191;-60
2022/02/24 04:25:18;;;;;;;102.07;9.77;;;-0.10;99.90;;;;;;4985068;28;20186;-59
2022/02/24 04:27:49;;;;;;;29.97;8.50;;;-0.10;99.90;;;;;;4985111;28;20203;-59
2022/02/24 04:30:16;;;;;;;82.77;9.10;;;-0.10;99.90;;;;;;4982278;28;20218;-60
2022/02/24 04:32:42;;;;;;;49.90;9.33;;;-0.10;99.90;;;;;;4985052;28;21858;-58
2022/02/24 04:35:09;;;;;;;56.57;10.23;;;-0.10;99.90;;;;;;4984554;28;20433;-59
2022/02/24 04:37:35;;;;;;;101.13;10.60;;;-0.20;99.90;;;;;;4982669;28;20517;-58
2022/02/24 04:40:02;;;;;;;129.90;12.00;;;-0.20;99.90;;;;;;4985407;28;20537;-59
2022/02/24 04:42:28;;;;;;;56.57;10.63;;;-0.20;99.90;;;;;;4981918;28;20195;-59
2022/02/24 04:44:53;;;;;;;68.30;12.80;;;-0.30;99.90;;;;;;4985395;28;20529;-59
2022/02/24 04:47:19;;;;;;;72.13;12.57;;;-0.30;99.90;;;;;;4985095;28;20258;-59
2022/02/24 04:49:45;;;;;;;113.40;14.00;;;-0.30;99.90;;;;;;4982993;28;20208;-59
2022/02/24 04:52:10;;;;;;;186.37;17.63;;;-0.30;99.90;;;;;;4984639;28;20179;-57
2022/02/24 04:54:36;;;;;;;83.97;17.13;;;-0.30;99.90;;;;;;4978677;28;20451;-58
2022/02/24 04:57:02;;;;;;;168.93;17.23;;;-0.30;99.90;;;;;;4982739;28;20188;-55
2022/02/24 04:59:27;;;;;;;92.10;15.13;;;-0.40;99.90;;;;;;4983240;28;20207;-55
2022/02/24 05:01:53;;;;;;;83.87;14.20;;;-0.40;99.90;;;;;;4982050;28;20546;-58
2022/02/24 05:04:18;;;;;;;57.10;13.00;;;-0.40;99.90;;;;;;4977359;28;20619;-59
2022/02/24 05:06:44;;;;;;;107.17;13.63;;;-0.40;99.90;;;;;;4979017;28;20656;-60
2022/02/24 05:09:10;;;;;;;64.00;11.43;;;-0.40;99.90;;;;;;4981550;28;20591;-61
2022/02/24 05:11:35;;;;;;;92.60;15.50;;;-0.40;99.90;;;;;;4978287;28;20237;-60
2022/02/24 05:14:01;;;;;;;105.77;13.43;;;-0.40;99.90;;;;;;4982473;28;20187;-61
2022/02/24 05:16:27;;;;;;;26.13;10.90;;;-0.40;99.90;;;;;;4982388;28;20183;-60
2022/02/24 05:18:52;;;;;;;69.87;11.57;;;-0.40;99.90;;;;;;4981279;28;20169;-62
2022/02/24 05:21:18;;;;;;;35.43;9.20;;;-0.40;99.90;;;;;;4982596;28;20218;-62
2022/02/24 05:23:44;;;;;;;90.67;11.93;;;-0.40;99.90;;;;;;4980125;28;20254;-60
2022/02/24 05:26:10;;;;;;;53.73;10.90;;;-0.40;99.90;;;;;;4984243;28;20183;-61
2022/02/24 05:28:36;;;;;;;27.70;10.30;;;-0.40;99.90;;;;;;4982125;28;20513;-60
2022/02/24 05:31:02;;;;;;;59.33;12.00;;;-0.40;99.90;;;;;;4981704;28;20304;-60
2022/02/24 05:33:28;;;;;;;35.17;11.80;;;-0.40;99.90;;;;;;4984021;28;20611;-59
2022/02/24 05:35:55;;;;;;;59.90;12.83;;;-0.40;99.90;;;;;;4984630;28;20206;-61
2022/02/24 05:38:21;;;;;;;42.07;11.30;;;-0.50;99.90;;;;;;4980491;28;20496;-61
2022/02/24 05:40:47;;;;;;;51.23;10.87;;;-0.50;99.90;;;;;;4979796;28;20459;-62
2022/02/24 05:43:12;;;;;;;47.63;11.77;;;-0.50;99.90;;;;;;4979354;28;20449;-61
2022/02/24 05:45:38;;;;;;;33.63;10.10;;;-0.50;99.90;;;;;;4980725;28;20466;-58
2022/02/24 05:48:04;;;;;;;36.30;11.97;;;-0.50;99.90;;;;;;4979853;28;20273;-61
2022/02/24 05:50:29;;;;;;;25.10;10.03;;;-0.50;99.90;;;;;;4978518;28;20226;-60
2022/02/24 05:53:02;;;;;;;29.43;8.10;;;-0.50;99.90;;;;;;4979971;28;20559;-63
2022/02/24 05:55:31;;;;;;;25.00;8.90;;;-0.50;99.90;;;;;;4979986;28;20317;-62
2022/02/24 05:57:57;;;;;;;26.53;8.43;;;-0.50;99.90;;;;;;4982623;28;20443;-61
2022/02/24 06:00:22;;;;;;;28.73;9.10;;;-0.50;99.90;;;;;;4982422;28;20461;-62
2022/02/24 06:02:48;;;;;;;17.30;7.97;;;-0.50;99.90;;;;;;4987431;28;20202;-59
2022/02/24 06:05:15;;;;;;;23.53;9.23;;;-0.50;99.90;;;;;;4988682;28;20188;-62
2022/02/24 06:07:42;;;;;;;26.07;9.20;;;-0.50;99.90;;;;;;4984336;28;21042;-63
2022/02/24 06:10:10;;;;;;;20.00;8.10;;;-0.50;99.90;;;;;;4982707;28;20478;-61
2022/02/24 06:12:36;;;;;;;14.30;7.87;;;-0.40;99.90;;;;;;4984852;28;20988;-61
2022/02/24 06:15:03;;;;;;;22.40;9.30;;;-0.40;99.90;;;;;;4989289;28;20466;-62
2022/02/24 06:17:29;;;;;;;25.10;9.40;;;-0.40;99.90;;;;;;4988452;28;20434;-62
2022/02/24 06:19:55;;;;;;;29.83;8.50;;;-0.50;99.90;;;;;;4988830;28;20465;-61
2022/02/24 06:22:21;;;;;;;20.37;9.13;;;-0.50;99.90;;;;;;4988331;28;20225;-61
2022/02/24 06:24:47;;;;;;;38.73;9.03;;;-0.50;99.90;;;;;;4989711;28;20175;-62
2022/02/24 06:27:13;;;;;;;48.27;10.17;;;-0.50;99.90;;;;;;4987775;28;20818;-62
2022/02/24 06:29:38;;;;;;;44.37;9.20;;;-0.50;99.90;;;;;;4990020;28;20748;-61
2022/02/24 06:32:04;;;;;;;31.53;9.10;;;-0.50;99.90;;;;;;4988719;28;20277;-61
2022/02/24 06:34:30;;;;;;;46.03;10.10;;;-0.50;99.90;;;;;;4990028;28;20587;-61
2022/02/24 06:36:57;;;;;;;53.37;11.50;;;-0.40;99.90;;;;;;4987499;28;20532;-61
2022/02/24 06:39:22;;;;;;;63.20;10.90;;;-0.40;99.90;;;;;;4995142;28;20483;-61
2022/02/24 06:41:48;;;;;;;39.67;10.60;;;-0.40;99.90;;;;;;4988213;28;20871;-61
2022/02/24 06:44:14;;;;;;;34.47;9.63;;;-0.40;99.90;;;;;;4989198;28;20690;-62
2022/02/24 06:46:40;;;;;;;34.60;9.63;;;-0.40;99.90;;;;;;4988247;28;20175;-63
2022/02/24 06:49:06;;;;;;;38.27;9.10;;;-0.40;99.90;;;;;;4989381;28;20210;-62
2022/02/24 06:51:32;;;;;;;31.23;9.97;;;-0.40;99.90;;;;;;4981879;28;21103;-63
2022/02/24 06:53:57;;;;;;;23.53;9.30;;;-0.30;99.90;;;;;;4980325;28;20179;-61
2022/02/24 06:56:26;;;;;;;29.20;8.70;;;-0.30;99.90;;;;;;4989146;28;21098;-62
2022/02/24 06:58:52;;;;;;;21.30;7.70;;;-0.30;99.90;;;;;;4992288;28;20171;-61
2022/02/24 07:01:18;;;;;;;16.70;7.50;;;-0.30;99.90;;;;;;4989727;28;20484;-62
2022/02/24 07:03:44;;;;;;;21.67;7.30;;;-0.30;99.90;;;;;;4991256;28;20278;-62
2022/02/24 07:06:10;;;;;;;22.30;7.73;;;-0.20;99.90;;;;;;4982582;28;20176;-62
2022/02/24 07:08:36;;;;;;;16.57;8.00;;;-0.20;99.90;;;;;;4983732;28;20965;-61
2022/02/24 07:11:05;;;;;;;21.10;8.17;;;-0.30;99.90;;;;;;4976993;28;20467;-62
2022/02/24 07:13:30;;;;;;;16.77;8.00;;;-0.30;99.90;;;;;;4986341;28;20426;-62
2022/02/24 07:15:56;;;;;;;19.00;7.90;;;-0.30;99.90;;;;;;4985226;28;21099;-61
2022/02/24 07:18:22;;;;;;;11.73;7.33;;;-0.40;99.90;;;;;;4988086;28;20176;-61
2022/02/24 07:20:48;;;;;;;14.93;7.37;;;-0.40;99.90;;;;;;4988657;28;20206;-62
2022/02/24 07:23:13;;;;;;;20.00;7.90;;;-0.40;99.90;;;;;;4981411;28;20180;-61
2022/02/24 07:25:40;;;;;;;17.10;8.10;;;-0.40;99.90;;;;;;4977496;28;20194;-61
2022/02/24 07:28:07;;;;;;;13.90;7.37;;;-0.30;99.90;;;;;;4979277;28;20185;-60
2022/02/24 07:30:37;;;;;;;15.80;8.03;;;-0.30;99.90;;;;;;4988710;28;20469;-61
2022/02/24 07:33:03;;;;;;;20.90;8.53;;;-0.20;99.90;;;;;;4980631;28;20433;-61
2022/02/24 07:35:29;;;;;;;20.60;7.63;;;-0.20;99.90;;;;;;4995322;28;21059;-61
2022/02/24 07:37:55;;;;;;;16.00;8.03;;;-0.10;99.90;;;;;;4984534;28;20418;-61
2022/02/24 07:40:21;;;;;;;15.70;7.10;;;0.00;99.90;;;;;;4992138;28;20993;-61
2022/02/24 07:42:47;;;;;;;31.83;9.40;;;0.10;99.90;;;;;;5000253;28;20187;-61
2022/02/24 07:45:12;;;;;;;34.60;11.73;;;0.20;99.90;;;;;;4992382;28;20557;-61
2022/02/24 07:47:38;;;;;;;61.97;15.20;;;0.20;99.90;;;;;;4985561;28;20705;-62
2022/02/24 07:50:06;;;;;;;27.17;11.53;;;0.20;99.90;;;;;;4987361;28;20207;-61
2022/02/24 07:52:32;;;;;;;27.00;9.60;;;0.20;99.90;;;;;;4999549;28;20441;-59
2022/02/24 07:54:58;;;;;;;33.63;9.10;;;0.20;99.90;;;;;;4981273;28;20443;-59
2022/02/24 07:57:23;;;;;;;28.40;8.70;;;0.20;99.90;;;;;;4988340;28;22187;-60
2022/02/24 07:59:49;;;;;;;24.73;8.20;;;0.30;99.90;;;;;;4988074;28;20494;-60
2022/02/24 08:02:14;;;;;;;21.53;8.00;;;0.40;99.90;;;;;;4990524;28;20184;-60
2022/02/24 08:04:40;;;;;;;40.00;8.37;;;0.50;99.90;;;;;;4986245;28;20186;-61
2022/02/24 08:07:06;;;;;;;28.90;9.90;;;0.70;99.90;;;;;;4993633;28;20189;-60
2022/02/24 08:09:32;;;;;;;36.10;10.83;;;0.80;99.90;;;;;;4993296;28;20231;-60
2022/02/24 08:14:42;;;;;;;42.90;12.53;;;0.90;99.90;;;;;;4991123;28;20412;-60
2022/02/24 08:17:08;;;;;;;49.23;16.63;;;1.00;99.90;;;;;;4992599;28;20451;-60
2022/02/24 08:19:37;;;;;;;62.37;18.60;;;1.10;99.90;;;;;;4978823;28;20497;-60
2022/02/24 08:22:03;;;;;;;73.80;21.17;;;1.20;99.90;;;;;;4996213;28;20228;-60
2022/02/24 08:24:32;;;;;;;72.10;22.13;;;1.30;99.90;;;;;;4992041;28;20419;-60
2022/02/24 08:26:58;;;;;;;60.47;19.57;;;1.40;99.90;;;;;;4992031;28;20913;-61
2022/02/24 08:29:24;;;;;;;64.80;20.53;;;1.40;99.90;;;;;;4990745;28;20496;-61
2022/02/24 08:31:49;;;;;;;53.17;17.13;;;1.60;99.90;;;;;;4993394;28;20180;-60
2022/02/24 08:34:16;;;;;;;51.23;15.77;;;1.70;99.90;;;;;;4987436;28;20263;-60
2022/02/24 08:36:41;;;;;;;43.80;17.00;;;1.80;99.90;;;;;;4991988;28;20170;-61
2022/02/24 08:39:08;;;;;;;55.63;18.30;;;1.90;99.90;;;;;;4989083;28;20557;-61
2022/02/24 08:41:35;;;;;;;50.00;17.93;;;2.10;99.90;;;;;;4989792;28;20185;-61
2022/02/24 08:44:01;;;;;;;70.13;20.37;;;2.10;99.90;;;;;;4990756;28;20507;-61
2022/02/24 08:46:26;;;;;;;59.93;20.80;;;2.20;99.90;;;;;;4991666;28;20562;-61
2022/02/24 08:48:52;;;;;;;68.10;19.03;;;2.30;99.90;;;;;;4989642;28;20433;-60
2022/02/24 08:51:18;;;;;;;51.33;17.90;;;2.50;99.90;;;;;;4983876;28;20255;-60
2022/02/24 08:53:43;;;;;;;59.37;19.13;;;2.60;99.90;;;;;;4986787;28;21421;-61
2022/02/24 08:56:09;;;;;;;56.93;19.57;;;2.80;99.90;;;;;;4986743;28;20173;-60
2022/02/24 08:58:35;;;;;;;53.30;21.07;;;2.90;99.90;;;;;;4993432;28;20666;-62
2022/02/24 09:01:00;;;;;;;52.50;19.90;;;3.10;99.90;;;;;;4990106;28;20277;-60
2022/02/24 09:03:26;;;;;;;55.97;20.60;;;3.20;99.90;;;;;;4986290;28;20661;-60
2022/02/24 09:05:51;;;;;;;42.10;19.13;;;3.40;99.90;;;;;;4985195;28;20188;-60
2022/02/24 09:08:17;;;;;;;46.53;17.73;;;3.50;99.90;;;;;;4991068;28;20191;-60
2022/02/24 09:10:43;;;;;;;44.07;18.97;;;3.70;99.90;;;;;;4978407;28;20205;-61
2022/02/24 09:13:08;;;;;;;43.07;18.90;;;3.80;99.90;;;;;;4980730;28;20181;-61
2022/02/24 09:15:35;;;;;;;54.00;18.00;;;3.90;99.90;;;;;;4980061;28;20550;-61
2022/02/24 09:18:03;;;;;;;28.90;13.37;;;4.10;99.90;;;;;;4989446;28;20176;-60
2022/02/24 09:20:29;;;;;;;28.60;12.20;;;4.30;99.90;;;;;;4996673;28;20455;-61
2022/02/24 09:22:55;;;;;;;29.73;12.43;;;4.40;99.90;;;;;;4986792;28;20534;-61
2022/02/24 09:25:23;;;;;;;26.30;11.30;;;4.60;99.90;;;;;;4985674;28;20447;-61
2022/02/24 09:27:50;;;;;;;23.20;12.47;;;4.70;99.90;;;;;;4984342;28;20523;-61
2022/02/24 09:30:15;;;;;;;22.90;12.13;;;4.80;99.90;;;;;;4987885;28;20474;-61
2022/02/24 09:32:43;;;;;;;21.87;11.07;;;4.90;99.90;;;;;;4987781;28;20432;-61
2022/02/24 09:35:11;;;;;;;27.90;11.40;;;5.00;99.90;;;;;;4983375;28;20179;-61
2022/02/24 09:37:37;;;;;;;22.50;11.90;;;5.10;99.90;;;;;;4993271;28;20464;-62
2022/02/24 09:40:05;;;;;;;31.17;11.20;;;5.30;99.90;;;;;;4979634;28;20534;-61
2022/02/24 09:42:30;;;;;;;25.47;11.97;;;5.40;99.90;;;;;;4979319;28;20429;-61
2022/02/24 09:44:56;;;;;;;26.47;12.20;;;5.50;99.90;;;;;;4987923;28;20431;-61
2022/02/24 09:47:24;;;;;;;32.47;12.37;;;5.50;99.90;;;;;;4989624;28;20238;-60
2022/02/24 09:49:53;;;;;;;27.37;13.50;;;5.60;99.90;;;;;;4980537;28;20239;-60
2022/02/24 09:52:19;;;;;;;27.00;13.50;;;5.70;99.90;;;;;;4983816;28;20451;-60
2022/02/24 09:54:44;;;;;;;32.30;13.60;;;5.90;99.90;;;;;;4995458;28;20432;-60
2022/02/24 09:57:10;;;;;;;32.63;13.40;;;6.00;99.90;;;;;;4988562;28;20195;-60
2022/02/24 09:59:35;;;;;;;33.73;14.33;;;6.10;99.90;;;;;;4983086;28;20205;-59
2022/02/24 10:02:03;;;;;;;21.73;13.10;;;6.40;99.90;;;;;;4984108;28;20235;-60
2022/02/24 10:04:29;;;;;;;14.50;7.40;;;6.60;99.90;;;;;;4989830;28;20181;-60
2022/02/24 10:06:55;;;;;;;10.20;6.27;;;6.90;99.90;;;;;;4994799;28;20427;-62
2022/02/24 10:09:33;;;;;;;15.43;6.30;;;7.20;99.90;;;;;;4989226;28;20468;-61
2022/02/24 10:12:09;;;;;;;8.77;5.20;;;7.50;99.90;;;;;;4977669;28;20459;-61
2022/02/24 10:14:35;;;;;;;7.20;4.90;;;7.70;99.60;;;;;;4978775;28;20441;-62
2022/02/24 10:17:07;;;;;;;9.13;5.00;;;7.80;94.60;;;;;;4977335;28;20945;-60
2022/02/24 10:19:37;;;;;;;11.60;4.70;;;8.00;89.10;;;;;;4979960;28;20525;-61
2022/02/24 10:22:26;;;;;;;6.50;4.70;;;8.10;82.30;;;;;;4989465;28;20427;-60
2022/02/24 10:24:57;;;;;;;5.57;4.10;;;8.30;79.10;;;;;;4980553;28;20463;-60
2022/02/24 10:27:27;;;;;;;5.10;3.90;;;8.50;73.90;;;;;;4989363;28;20412;-60
2022/02/24 10:30:13;;;;;;;6.03;4.20;;;8.70;72.10;;;;;;4984311;28;20468;-62
2022/02/24 10:32:40;;;;;;;6.13;3.70;;;8.80;71.30;;;;;;4990794;28;21058;-61
2022/02/24 10:35:40;;;;;;;5.93;3.83;;;9.00;69.20;;;;;;4979185;28;20449;-60
2022/02/24 10:38:08;;;;;;;10.23;3.37;;;9.20;65.40;;;;;;4984631;28;20443;-60
2022/02/24 10:40:36;;;;;;;3.80;3.20;;;9.50;65.50;;;;;;4974430;28;20452;-60
2022/02/24 10:43:12;;;;;;;4.73;2.83;;;9.60;61.90;;;;;;4983868;28;20498;-60
2022/02/24 10:45:39;;;;;;;11.43;2.53;;;9.70;60.10;;;;;;4990224;28;20440;-60
2022/02/24 10:48:06;;;;;;;8.60;2.50;;;9.90;58.80;;;;;;4989689;28;20434;-60
2022/02/24 10:50:48;;;;;;;5.20;2.30;;;10.10;55.20;;;;;;4980467;28;20533;-61
2022/02/24 10:53:16;;;;;;;5.57;2.90;;;10.20;54.10;;;;;;4991782;28;20439;-64
2022/02/24 10:56:01;;;;;;;3.60;2.40;;;10.40;53.10;;;;;;4991683;28;20456;-63
2022/02/24 10:58:47;;;;;;;2.17;1.90;;;10.60;52.70;;;;;;4982231;28;20424;-62
2022/02/24 11:01:18;;;;;;;5.70;2.50;;;10.80;51.10;;;;;;4993394;28;20530;-63
2022/02/24 11:03:47;;;;;;;6.10;2.43;;;10.90;50.80;;;;;;4984411;28;20463;-63
2022/02/24 11:06:14;;;;;;;5.73;2.20;;;10.90;50.20;;;;;;4984182;28;20446;-61
2022/02/24 11:08:44;;;;;;;3.80;2.50;;;11.00;50.00;;;;;;4992425;28;20944;-63
2022/02/24 11:11:16;;;;;;;7.37;3.17;;;11.00;49.20;;;;;;4981913;28;20894;-63
2022/02/24 11:13:42;;;;;;;10.40;2.70;;;10.90;49.30;;;;;;4984054;28;20534;-63
2022/02/24 11:16:08;;;;;;;5.37;3.27;;;10.90;49.50;;;;;;4980116;28;21263;-62
2022/02/24 11:18:34;;;;;;;10.50;3.67;;;10.90;48.90;;;;;;4983537;28;20522;-59
2022/02/24 11:20:59;;;;;;;5.27;2.90;;;10.80;49.20;;;;;;4985874;28;20294;-58
2022/02/24 11:23:26;;;;;;;4.00;2.60;;;10.80;49.40;;;;;;4983313;28;20182;-61
2022/02/24 11:25:54;;;;;;;4.80;2.77;;;10.60;49.30;;;;;;4988350;28;20774;-60
2022/02/24 11:28:22;;;;;;;4.10;2.87;;;10.50;49.70;;;;;;4987692;28;20582;-61
2022/02/24 11:30:55;;;;;;;6.83;3.20;;;10.50;49.90;;;;;;4984301;28;20551;-61
2022/02/24 11:33:21;;;;;;;6.00;2.60;;;10.60;49.80;;;;;;4979853;28;20431;-61
2022/02/24 11:36:06;;;;;;;6.90;2.80;;;10.60;50.10;;;;;;4985808;28;21521;-60
2022/02/24 11:38:32;;;;;;;5.10;3.73;;;10.80;49.50;;;;;;4984076;28;20436;-61
2022/02/24 11:41:04;;;;;;;7.40;3.00;;;11.00;49.20;;;;;;4991425;28;20457;-61
2022/02/24 11:43:29;;;;;;;6.90;2.93;;;11.30;49.10;;;;;;4986426;28;20800;-61
2022/02/24 11:45:57;;;;;;;9.10;3.47;;;11.70;49.20;;;;;;4986629;28;20440;-61
2022/02/24 11:48:24;;;;;;;3.70;2.60;;;12.10;47.50;;;;;;4989892;28;20662;-61
2022/02/24 11:50:58;;;;;;;4.90;2.57;;;12.50;47.40;;;;;;4982451;28;20462;-61
2022/02/24 11:53:27;;;;;;;5.87;2.30;;;12.80;46.30;;;;;;4989468;28;20453;-61
2022/02/24 11:55:54;;;;;;;3.50;2.73;;;12.80;46.00;;;;;;4987690;28;20640;-62
2022/02/24 11:58:41;;;;;;;5.10;2.70;;;12.90;45.40;;;;;;4984382;28;20434;-60
2022/02/24 12:01:11;;;;;;;6.43;3.40;;;13.40;45.10;;;;;;4984682;28;20522;-61
2022/02/24 12:03:45;;;;;;;7.90;2.97;;;13.90;43.80;;;;;;4987602;28;23023;-60
2022/02/24 12:06:12;;;;;;;5.30;2.93;;;14.10;43.10;;;;;;4992222;28;20442;-59
2022/02/24 12:09:03;;;;;;;9.93;2.80;;;14.20;42.50;;;;;;4985925;28;20918;-61
2022/02/24 12:11:31;;;;;;;3.73;2.43;;;14.60;42.60;;;;;;4981278;28;20530;-60
2022/02/24 12:13:57;;;;;;;4.83;2.60;;;15.20;41.30;;;;;;4979369;28;20436;-61
2022/02/24 12:16:26;;;;;;;5.07;2.77;;;15.70;40.80;;;;;;4978128;28;20851;-60
2022/02/24 12:18:54;;;;;;;14.53;4.60;;;16.10;39.90;;;;;;4981851;28;20179;-61
2022/02/24 12:21:36;;;;;;;8.33;2.87;;;16.00;39.30;;;;;;4991002;28;21127;-61
2022/02/24 12:24:04;;;;;;;6.47;2.87;;;15.50;40.20;;;;;;4972031;28;21054;-60
2022/02/24 12:26:47;;;;;;;7.10;2.80;;;14.90;39.80;;;;;;4982897;28;20428;-58
2022/02/24 12:29:42;;;;;;;4.67;2.50;;;14.30;41.20;;;;;;4984318;28;20451;-61
2022/02/24 12:32:10;;;;;;;6.00;2.80;;;13.80;42.60;;;;;;4982471;28;20487;-61
2022/02/24 12:34:36;;;;;;;8.10;3.40;;;13.30;43.30;;;;;;4986342;28;20425;-61
2022/02/24 12:37:10;;;;;;;4.83;2.63;;;13.00;44.10;;;;;;4992143;28;20435;-60
2022/02/24 12:39:40;;;;;;;9.17;3.57;;;12.80;44.70;;;;;;4993494;28;20232;-61
2022/02/24 12:42:11;;;;;;;7.47;3.50;;;12.60;45.20;;;;;;4980288;28;20937;-63
2022/02/24 12:44:39;;;;;;;6.03;3.17;;;12.50;45.40;;;;;;4977384;28;20429;-60